Time;durP1;ratioP1;P1;durP2;ratioP2;P2;SDS_P1;SDS_P2;PMS_P1;PMS_P2;Temp;Humidity;BMP_temperature;BMP_pressure;BME280_temperature;BME280_humidity;BME280_pressure;Samples;Min_cycle;Max_cycle;Signal;HPM_P1;HPM_P2
2023/06/24 00:02:06;;;;;;;7.43;2.63;;;;;;;;;;10472361;28;20094;-74
2023/06/24 00:07:10;;;;;;;5.70;3.10;;;;;;;;;;10454516;28;20052;-75
2023/06/24 00:12:19;;;;;;;5.05;2.63;;;;;;;;;;10460921;28;20102;-75
2023/06/24 00:17:22;;;;;;;5.50;2.90;;;;;;;;;;10467522;28;20045;-76
2023/06/24 00:22:26;;;;;;;5.53;2.92;;;;;;;;;;10464456;28;20072;-76
2023/06/24 00:27:29;;;;;;;6.25;2.85;;;;;;;;;;10464450;28;20037;-76
2023/06/24 00:32:31;;;;;;;7.57;2.60;;;;;;;;;;10470485;28;20052;-76
2023/06/24 00:37:35;;;;;;;4.73;2.30;;;;;;;;;;10477698;28;20530;-76
2023/06/24 00:42:38;;;;;;;5.75;2.80;;;;;;;;;;10462284;28;20117;-75
2023/06/24 00:47:41;;;;;;;5.50;2.63;;;;;;;;;;10478127;28;20167;-76
2023/06/24 00:52:45;;;;;;;4.18;1.92;;;;;;;;;;10469354;28;20076;-76
2023/06/24 00:57:50;;;;;;;5.25;2.50;;;;;;;;;;10469550;28;20072;-75
2023/06/24 01:02:53;;;;;;;5.63;2.42;;;;;;;;;;10458656;28;20045;-75
2023/06/24 01:07:57;;;;;;;5.90;2.55;;;;;;;;;;10461864;28;20092;-74
2023/06/24 01:13:00;;;;;;;5.25;2.78;;;;;;;;;;10466937;28;20120;-75
2023/06/24 01:18:05;;;;;;;4.30;2.70;;;;;;;;;;10464986;28;20068;-75
2023/06/24 01:23:21;;;;;;;5.05;2.42;;;;;;;;;;10467487;28;20064;-75
2023/06/24 01:28:35;;;;;;;5.13;2.67;;;;;;;;;;10457774;28;20501;-75
2023/06/24 01:33:37;;;;;;;;;;;;;;;;;;10465229;28;20045;-75
2023/06/24 01:38:44;;;;;;;5.60;2.75;;;;;;;;;;10469827;28;20290;-75
2023/06/24 01:43:48;;;;;;;4.97;2.33;;;;;;;;;;10461533;28;20045;-76
2023/06/24 01:48:51;;;;;;;5.53;2.60;;;;;;;;;;10467611;28;20292;-75
2023/06/24 01:53:59;;;;;;;5.32;2.70;;;;;;;;;;10464616;28;20064;-74
2023/06/24 01:59:03;;;;;;;4.57;2.60;;;;;;;;;;10472400;28;20540;-74
2023/06/24 02:04:08;;;;;;;3.60;2.25;;;;;;;;;;10463768;28;20147;-75
2023/06/24 02:09:13;;;;;;;5.55;2.88;;;;;;;;;;10464792;28;20123;-76
2023/06/24 02:14:17;;;;;;;6.03;2.75;;;;;;;;;;10456150;28;20386;-75
2023/06/24 02:19:20;;;;;;;4.35;2.33;;;;;;;;;;10467470;28;20045;-74
2023/06/24 02:24:24;;;;;;;4.78;2.40;;;;;;;;;;10471236;28;20108;-75
2023/06/24 02:29:27;;;;;;;3.50;1.88;;;;;;;;;;10477970;28;20037;-74
2023/06/24 02:34:30;;;;;;;5.70;2.75;;;;;;;;;;10474701;28;20037;-75
2023/06/24 02:39:35;;;;;;;11.97;2.57;;;;;;;;;;10480064;28;20075;-74
2023/06/24 02:44:37;;;;;;;2.63;1.50;;;;;;;;;;10472036;28;20077;-74
2023/06/24 02:49:40;;;;;;;4.33;2.60;;;;;;;;;;10479424;28;20068;-74
2023/06/24 02:54:45;;;;;;;5.07;2.67;;;;;;;;;;10472797;28;20251;-74
2023/06/24 02:59:48;;;;;;;4.35;2.33;;;;;;;;;;10475522;28;20067;-75
2023/06/24 03:04:51;;;;;;;;;;;;;;;;;;10473583;28;20063;-74
2023/06/24 03:09:55;;;;;;;4.95;1.73;;;;;;;;;;10474261;28;19921;-75
2023/06/24 03:14:57;;;;;;;3.65;2.00;;;;;;;;;;10466431;28;20435;-74
2023/06/24 03:20:00;;;;;;;5.82;3.28;;;;;;;;;;10466342;28;20127;-74
2023/06/24 03:25:04;;;;;;;5.65;2.65;;;;;;;;;;10464214;28;20191;-74
2023/06/24 03:30:07;;;;;;;5.15;2.00;;;;;;;;;;10472909;28;20025;-74
2023/06/24 03:35:10;;;;;;;6.13;2.38;;;;;;;;;;10468589;28;20180;-74
2023/06/24 03:40:14;;;;;;;4.47;2.50;;;;;;;;;;10471795;28;20067;-73
2023/06/24 03:45:17;;;;;;;4.35;2.15;;;;;;;;;;10472931;28;20107;-74
2023/06/24 03:50:19;;;;;;;3.90;2.00;;;;;;;;;;10477318;28;20106;-75
2023/06/24 03:55:23;;;;;;;5.23;2.63;;;;;;;;;;10470582;28;20060;-74
2023/06/24 04:00:26;;;;;;;5.70;2.72;;;;;;;;;;10475262;28;20044;-75
2023/06/24 04:05:28;;;;;;;3.83;2.00;;;;;;;;;;10469199;28;20471;-73
2023/06/24 04:10:32;;;;;;;4.40;2.50;;;;;;;;;;10465403;28;20128;-76
2023/06/24 04:15:36;;;;;;;5.85;2.50;;;;;;;;;;10467076;28;20041;-74
2023/06/24 04:20:38;;;;;;;5.50;2.20;;;;;;;;;;10460691;28;20033;-74
2023/06/24 04:25:42;;;;;;;4.53;2.03;;;;;;;;;;10467322;28;20825;-74
2023/06/24 04:30:45;;;;;;;4.35;2.30;;;;;;;;;;10457111;28;20185;-75
2023/06/24 04:35:47;;;;;;;4.82;2.13;;;;;;;;;;10460675;28;20037;-75
2023/06/24 04:40:51;;;;;;;3.67;2.00;;;;;;;;;;10468413;28;20128;-75
2023/06/24 04:45:54;;;;;;;5.32;2.75;;;;;;;;;;10467152;28;20055;-75
2023/06/24 04:50:58;;;;;;;4.90;2.53;;;;;;;;;;10458787;28;20128;-75
2023/06/24 04:56:02;;;;;;;4.55;2.22;;;;;;;;;;10448598;28;20045;-75
2023/06/24 05:01:04;;;;;;;4.88;2.53;;;;;;;;;;10461166;28;20109;-74
2023/06/24 05:06:07;;;;;;;5.37;2.47;;;;;;;;;;10463068;28;20036;-74
2023/06/24 05:11:11;;;;;;;5.50;2.27;;;;;;;;;;10475462;28;20208;-76
2023/06/24 05:16:13;;;;;;;4.32;2.22;;;;;;;;;;10473471;28;20068;-75
2023/06/24 05:21:16;;;;;;;4.53;2.83;;;;;;;;;;10465632;28;20113;-74
2023/06/24 05:26:20;;;;;;;4.70;2.73;;;;;;;;;;10468091;28;20208;-75
2023/06/24 05:31:22;;;;;;;6.20;2.70;;;;;;;;;;10475315;28;20156;-75
2023/06/24 05:36:25;;;;;;;4.53;2.57;;;;;;;;;;10471477;28;20048;-75
2023/06/24 05:41:29;;;;;;;4.33;1.93;;;;;;;;;;10476570;28;20052;-75
2023/06/24 05:46:32;;;;;;;4.68;2.28;;;;;;;;;;10471910;28;20045;-74
2023/06/24 05:51:34;;;;;;;4.90;2.70;;;;;;;;;;10468175;28;20095;-75
2023/06/24 05:56:38;;;;;;;4.17;2.63;;;;;;;;;;10467624;28;20120;-74
2023/06/24 06:01:41;;;;;;;5.07;2.53;;;;;;;;;;10457186;28;20109;-75
2023/06/24 06:06:44;;;;;;;4.95;2.70;;;;;;;;;;10464493;28;20044;-75
2023/06/24 06:11:48;;;;;;;5.65;2.63;;;;;;;;;;10459249;28;20504;-74
2023/06/24 06:16:50;;;;;;;4.63;2.47;;;;;;;;;;10451290;28;20045;-74
2023/06/24 06:21:53;;;;;;;7.63;3.10;;;;;;;;;;10469376;28;20136;-75
2023/06/24 06:26:58;;;;;;;3.95;2.47;;;;;;;;;;10457422;28;20044;-74
2023/06/24 06:32:01;;;;;;;5.10;2.33;;;;;;;;;;10455988;28;20041;-75
2023/06/24 06:37:04;;;;;;;6.57;2.53;;;;;;;;;;10455254;28;20486;-74
2023/06/24 06:42:08;;;;;;;4.18;2.20;;;;;;;;;;10463512;28;20305;-74
2023/06/24 06:47:11;;;;;;;5.88;2.40;;;;;;;;;;10467564;28;20039;-75
2023/06/24 06:52:14;;;;;;;4.78;2.42;;;;;;;;;;10471093;28;20049;-74
2023/06/24 06:57:20;;;;;;;3.72;2.10;;;;;;;;;;10470657;28;20051;-75
2023/06/24 07:02:23;;;;;;;4.35;2.08;;;;;;;;;;10465510;28;20063;-75
2023/06/24 07:07:26;;;;;;;3.50;1.90;;;;;;;;;;10464765;28;20182;-76
2023/06/24 07:12:30;;;;;;;4.38;2.17;;;;;;;;;;10473240;28;20106;-74
2023/06/24 07:17:33;;;;;;;2.40;1.80;;;;;;;;;;10479584;28;20054;-74
2023/06/24 07:22:36;;;;;;;;;;;;;;;;;;10478923;28;20041;-74
2023/06/24 07:27:39;;;;;;;3.50;2.03;;;;;;;;;;10472102;28;19928;-76
2023/06/24 07:32:42;;;;;;;3.88;2.25;;;;;;;;;;10472373;28;20108;-74
2023/06/24 07:37:45;;;;;;;4.45;2.10;;;;;;;;;;10471555;28;20085;-75
2023/06/24 07:42:48;;;;;;;3.58;2.30;;;;;;;;;;10462778;28;20075;-73
2023/06/24 07:47:51;;;;;;;5.43;2.53;;;;;;;;;;10477193;28;20079;-75
2023/06/24 07:52:54;;;;;;;;;;;;;;;;;;10469059;28;20057;-73
2023/06/24 07:57:58;;;;;;;4.80;2.87;;;;;;;;;;10477776;28;19924;-73
2023/06/24 08:03:01;;;;;;;6.63;2.42;;;;;;;;;;10480244;28;20128;-75
2023/06/24 08:08:04;;;;;;;3.88;2.42;;;;;;;;;;10461036;28;20047;-75
2023/06/24 08:13:08;;;;;;;3.90;2.30;;;;;;;;;;10471593;28;20049;-74
2023/06/24 08:18:11;;;;;;;4.03;2.40;;;;;;;;;;10467720;28;20128;-74
2023/06/24 08:23:14;;;;;;;4.07;2.70;;;;;;;;;;10473259;28;20037;-76
2023/06/24 08:28:18;;;;;;;7.47;4.50;;;;;;;;;;10458894;28;20052;-75
2023/06/24 08:33:21;;;;;;;6.05;3.10;;;;;;;;;;10473490;28;20068;-75
2023/06/24 08:38:23;;;;;;;4.47;3.30;;;;;;;;;;10465977;28;20370;-75
2023/06/24 08:43:28;;;;;;;6.00;4.00;;;;;;;;;;10463574;28;20069;-75
2023/06/24 08:48:31;;;;;;;5.20;3.10;;;;;;;;;;10478693;28;20448;-75
2023/06/24 08:53:34;;;;;;;5.30;3.33;;;;;;;;;;10469703;28;20060;-75
2023/06/24 08:58:38;;;;;;;5.78;3.25;;;;;;;;;;10466331;28;20045;-75
2023/06/24 09:03:40;;;;;;;4.35;3.40;;;;;;;;;;10469570;28;20096;-75
2023/06/24 09:08:52;;;;;;;4.25;3.13;;;;;;;;;;10467456;28;20036;-75
2023/06/24 09:13:57;;;;;;;8.00;4.07;;;;;;;;;;10472551;28;20043;-75
2023/06/24 09:19:00;;;;;;;6.28;3.58;;;;;;;;;;10469951;28;20136;-75
2023/06/24 09:24:02;;;;;;;6.90;3.75;;;;;;;;;;10467424;28;20045;-74
2023/06/24 09:29:08;;;;;;;5.30;3.50;;;;;;;;;;10469720;28;20044;-76
2023/06/24 09:34:13;;;;;;;5.18;3.70;;;;;;;;;;10471715;28;20060;-73
2023/06/24 09:39:16;;;;;;;6.18;3.65;;;;;;;;;;10463786;28;20075;-76
2023/06/24 09:44:33;;;;;;;4.80;3.30;;;;;;;;;;10477533;28;20073;-74
2023/06/24 09:49:35;;;;;;;4.82;3.30;;;;;;;;;;10468853;28;20037;-74
2023/06/24 09:54:38;;;;;;;6.30;3.47;;;;;;;;;;10471952;28;20045;-74
2023/06/24 09:59:45;;;;;;;5.57;3.35;;;;;;;;;;10468903;28;20483;-74
2023/06/24 10:04:48;;;;;;;5.03;3.10;;;;;;;;;;10463095;28;20041;-74
2023/06/24 10:09:50;;;;;;;7.65;3.50;;;;;;;;;;10466341;28;20045;-73
2023/06/24 10:14:55;;;;;;;4.95;3.33;;;;;;;;;;10456088;28;20321;-74
2023/06/24 10:19:58;;;;;;;4.63;3.28;;;;;;;;;;10465651;28;20100;-75
2023/06/24 10:25:01;;;;;;;4.55;3.55;;;;;;;;;;10466163;28;20045;-74
2023/06/24 10:30:07;;;;;;;7.28;4.28;;;;;;;;;;10468098;28;20107;-75
2023/06/24 10:35:22;;;;;;;5.43;4.20;;;;;;;;;;10464131;28;20052;-75
2023/06/24 10:40:43;;;;;;;3.92;3.42;;;;;;;;;;10467757;28;20040;-75
2023/06/24 10:45:51;;;;;;;5.35;4.00;;;;;;;;;;10472838;28;20470;-75
2023/06/24 10:50:54;;;;;;;5.00;3.25;;;;;;;;;;10476997;28;20108;-75
2023/06/24 10:55:58;;;;;;;5.28;3.80;;;;;;;;;;10465714;28;20109;-75
2023/06/24 11:01:09;;;;;;;4.65;2.90;;;;;;;;;;10462915;28;20048;-75
2023/06/24 11:06:13;;;;;;;5.00;2.85;;;;;;;;;;10469863;28;20049;-75
2023/06/24 11:11:21;;;;;;;4.32;3.17;;;;;;;;;;10474871;28;20124;-74
2023/06/24 11:16:25;;;;;;;5.82;3.53;;;;;;;;;;10477024;28;20257;-74
2023/06/24 11:21:29;;;;;;;3.22;2.83;;;;;;;;;;10472511;28;20040;-75
2023/06/24 11:26:31;;;;;;;5.35;3.70;;;;;;;;;;10470472;28;20132;-74
2023/06/24 11:31:35;;;;;;;4.93;3.72;;;;;;;;;;10473641;28;20109;-74
2023/06/24 11:36:38;;;;;;;3.42;3.08;;;;;;;;;;10475945;28;20040;-75
2023/06/24 11:41:41;;;;;;;3.58;3.22;;;;;;;;;;10474178;28;20072;-75
2023/06/24 11:46:45;;;;;;;5.82;4.60;;;;;;;;;;10473404;28;20127;-74
2023/06/24 11:51:49;;;;;;;6.25;4.30;;;;;;;;;;10467773;28;20064;-74
2023/06/24 11:56:52;;;;;;;4.13;2.92;;;;;;;;;;10472811;28;20072;-74
2023/06/24 12:01:56;;;;;;;7.40;4.00;;;;;;;;;;10473799;28;20037;-74
2023/06/24 12:06:59;;;;;;;4.82;3.05;;;;;;;;;;10471973;28;20051;-74
2023/06/24 12:12:02;;;;;;;5.25;3.38;;;;;;;;;;10471784;28;20101;-74
2023/06/24 12:17:06;;;;;;;6.05;3.60;;;;;;;;;;10473254;28;20052;-74
2023/06/24 12:22:08;;;;;;;4.60;3.20;;;;;;;;;;10467060;28;20104;-74
2023/06/24 12:27:11;;;;;;;4.95;3.30;;;;;;;;;;10479043;28;20135;-74
2023/06/24 12:32:16;;;;;;;4.13;2.80;;;;;;;;;;10470301;28;20505;-75
2023/06/24 12:37:18;;;;;;;4.72;3.13;;;;;;;;;;10467383;28;20051;-74
2023/06/24 12:42:21;;;;;;;4.68;3.10;;;;;;;;;;10466516;28;20053;-74
2023/06/24 12:47:25;;;;;;;6.60;3.10;;;;;;;;;;10467523;28;20044;-74
2023/06/24 12:52:27;;;;;;;4.80;2.78;;;;;;;;;;10466609;28;20036;-74
2023/06/24 12:57:30;;;;;;;5.85;3.00;;;;;;;;;;10468809;28;20029;-76
2023/06/24 13:02:35;;;;;;;3.75;2.83;;;;;;;;;;10466344;28;20058;-74
2023/06/24 13:07:37;;;;;;;4.72;2.78;;;;;;;;;;10469202;28;20059;-73
2023/06/24 13:12:40;;;;;;;5.10;2.88;;;;;;;;;;10463439;28;20109;-74
2023/06/24 13:17:44;;;;;;;6.82;3.20;;;;;;;;;;10476053;28;20041;-74
2023/06/24 13:22:47;;;;;;;4.20;2.72;;;;;;;;;;10472655;28;20498;-74
2023/06/24 13:27:50;;;;;;;5.10;3.05;;;;;;;;;;10470042;28;20071;-73
2023/06/24 13:32:54;;;;;;;5.30;3.10;;;;;;;;;;10465866;28;20033;-74
2023/06/24 13:37:58;;;;;;;5.53;3.10;;;;;;;;;;10468913;28;20056;-73
2023/06/24 13:43:01;;;;;;;5.05;2.80;;;;;;;;;;10464525;28;20036;-76
2023/06/24 13:48:05;;;;;;;9.85;4.25;;;;;;;;;;10473306;28;20037;-74
2023/06/24 13:53:07;;;;;;;6.05;2.70;;;;;;;;;;10456760;28;20048;-74
2023/06/24 13:58:10;;;;;;;3.95;2.78;;;;;;;;;;10469201;28;20041;-75
2023/06/24 14:03:14;;;;;;;7.28;2.63;;;;;;;;;;10472667;28;20052;-75
2023/06/24 14:08:16;;;;;;;5.20;3.03;;;;;;;;;;10462803;28;20049;-75
2023/06/24 14:13:19;;;;;;;4.00;2.53;;;;;;;;;;10472560;28;20294;-76
2023/06/24 14:18:23;;;;;;;4.80;2.67;;;;;;;;;;10463492;28;20068;-73
2023/06/24 14:23:27;;;;;;;3.25;2.70;;;;;;;;;;10469027;28;20052;-76
2023/06/24 14:28:29;;;;;;;3.25;2.58;;;;;;;;;;10474351;28;20129;-75
2023/06/24 14:33:33;;;;;;;5.78;3.08;;;;;;;;;;10474103;28;20068;-75
2023/06/24 14:38:36;;;;;;;6.05;2.97;;;;;;;;;;10476018;28;20040;-75
2023/06/24 14:43:39;;;;;;;5.03;2.90;;;;;;;;;;10478978;28;20104;-75
2023/06/24 14:48:43;;;;;;;4.60;2.90;;;;;;;;;;10475378;28;20041;-73
2023/06/24 14:53:46;;;;;;;4.25;2.70;;;;;;;;;;10476222;28;20032;-75
2023/06/24 14:58:48;;;;;;;4.93;3.00;;;;;;;;;;10465505;28;20063;-75
2023/06/24 15:03:53;;;;;;;5.82;3.35;;;;;;;;;;10478717;28;20055;-75
2023/06/24 15:08:56;;;;;;;5.95;2.85;;;;;;;;;;10473747;28;20040;-74
2023/06/24 15:13:58;;;;;;;4.93;2.70;;;;;;;;;;10480131;28;20061;-75
2023/06/24 15:19:02;;;;;;;5.07;2.60;;;;;;;;;;10473318;28;20041;-75
2023/06/24 15:24:05;;;;;;;5.80;3.20;;;;;;;;;;10480970;28;20037;-74
2023/06/24 15:29:08;;;;;;;4.07;2.45;;;;;;;;;;10468052;28;20063;-74
2023/06/24 15:34:12;;;;;;;5.07;2.90;;;;;;;;;;10476879;28;20135;-74
2023/06/24 15:39:14;;;;;;;5.88;3.25;;;;;;;;;;10479346;28;20101;-73
2023/06/24 15:44:17;;;;;;;5.22;2.80;;;;;;;;;;10478776;28;20048;-74
2023/06/24 15:49:21;;;;;;;5.15;3.00;;;;;;;;;;10466149;28;20458;-75
2023/06/24 15:54:24;;;;;;;5.40;2.70;;;;;;;;;;10474094;28;20055;-75
2023/06/24 15:59:27;;;;;;;4.38;2.63;;;;;;;;;;10468261;28;20045;-75
2023/06/24 16:04:31;;;;;;;5.47;2.60;;;;;;;;;;10476581;28;20044;-75
2023/06/24 16:09:33;;;;;;;5.03;2.90;;;;;;;;;;10473834;28;20395;-75
2023/06/24 16:14:36;;;;;;;5.75;3.00;;;;;;;;;;10463820;28;20080;-75
2023/06/24 16:19:41;;;;;;;5.35;3.13;;;;;;;;;;10468022;28;20100;-74
2023/06/24 16:24:44;;;;;;;5.95;2.92;;;;;;;;;;10460055;28;20073;-75
2023/06/24 16:29:47;;;;;;;6.72;3.67;;;;;;;;;;10471196;28;20374;-76
2023/06/24 16:34:51;;;;;;;7.13;3.00;;;;;;;;;;10464061;28;20055;-75
2023/06/24 16:39:54;;;;;;;5.35;3.13;;;;;;;;;;10471301;28;20510;-75
2023/06/24 16:44:57;;;;;;;5.97;3.20;;;;;;;;;;10468940;28;20094;-76
2023/06/24 16:50:01;;;;;;;;;;;;;;;;;;10470763;28;20075;-74
2023/06/24 16:55:05;;;;;;;5.07;3.03;;;;;;;;;;10460890;28;19924;-74
2023/06/24 17:00:09;;;;;;;4.13;2.72;;;;;;;;;;10470243;28;20742;-76
2023/06/24 17:05:13;;;;;;;6.43;3.22;;;;;;;;;;10468823;28;20045;-75
2023/06/24 17:10:17;;;;;;;5.93;2.90;;;;;;;;;;10465838;28;20564;-75
2023/06/24 17:15:20;;;;;;;4.45;2.72;;;;;;;;;;10465544;28;20048;-74
2023/06/24 17:20:23;;;;;;;;;;;;;;;;;;10475833;28;20043;-74
2023/06/24 17:25:27;;;;;;;5.35;3.10;;;;;;;;;;10455586;28;19929;-74
2023/06/24 17:30:29;;;;;;;7.90;4.07;;;;;;;;;;10467942;28;20036;-74
2023/06/24 17:35:32;;;;;;;;;;;;;;;;;;10465734;28;20085;-75
2023/06/24 17:40:36;;;;;;;5.40;2.70;;;;;;;;;;10471964;28;19929;-75
2023/06/24 17:45:40;;;;;;;5.53;3.15;;;;;;;;;;10463388;28;20056;-74
2023/06/24 17:50:42;;;;;;;;;;;;;;;;;;10464287;28;20061;-75
2023/06/24 17:55:46;;;;;;;5.07;2.92;;;;;;;;;;10462488;28;19925;-74
2023/06/24 18:00:50;;;;;;;4.55;2.58;;;;;;;;;;10468630;28;20041;-75
2023/06/24 18:05:53;;;;;;;8.75;4.57;;;;;;;;;;10470188;28;20080;-74
2023/06/24 18:10:58;;;;;;;8.10;3.53;;;;;;;;;;10464485;28;20223;-75
2023/06/24 18:16:01;;;;;;;6.15;2.90;;;;;;;;;;10465490;28;20049;-74
2023/06/24 18:21:03;;;;;;;6.07;2.78;;;;;;;;;;10459857;28;20045;-76
2023/06/24 18:26:08;;;;;;;4.60;2.65;;;;;;;;;;10471210;28;20037;-75
2023/06/24 18:31:10;;;;;;;4.70;2.78;;;;;;;;;;10465207;28;20044;-75
2023/06/24 18:36:13;;;;;;;6.13;2.78;;;;;;;;;;10460267;28;20037;-75
2023/06/24 18:41:17;;;;;;;5.07;2.92;;;;;;;;;;10466462;28;20187;-75
2023/06/24 18:46:20;;;;;;;6.82;3.33;;;;;;;;;;10466904;28;20147;-75
2023/06/24 18:51:23;;;;;;;5.85;3.10;;;;;;;;;;10467721;28;20093;-75
2023/06/24 18:56:28;;;;;;;6.45;3.65;;;;;;;;;;10459918;28;20464;-76
2023/06/24 19:01:30;;;;;;;5.32;3.00;;;;;;;;;;10480965;28;20126;-75
2023/06/24 19:06:33;;;;;;;5.70;3.28;;;;;;;;;;10468248;28;20064;-75
2023/06/24 19:11:37;;;;;;;5.32;3.22;;;;;;;;;;10473024;28;20032;-75
2023/06/24 19:16:40;;;;;;;8.93;4.30;;;;;;;;;;10477219;28;20049;-75
2023/06/24 19:21:43;;;;;;;10.45;5.03;;;;;;;;;;10474756;28;20033;-76
2023/06/24 19:26:47;;;;;;;8.07;4.05;;;;;;;;;;10479268;28;20040;-77
2023/06/24 19:31:50;;;;;;;8.20;3.88;;;;;;;;;;10480293;28;20104;-75
2023/06/24 19:36:54;;;;;;;7.25;4.15;;;;;;;;;;10476122;28;20037;-74
2023/06/24 19:41:59;;;;;;;8.73;3.90;;;;;;;;;;10469886;28;20075;-73
2023/06/24 19:47:03;;;;;;;9.27;4.80;;;;;;;;;;10479970;28;20040;-76
2023/06/24 19:52:06;;;;;;;;;;;;;;;;;;10476832;28;20113;-76
2023/06/24 19:57:10;;;;;;;9.73;4.97;;;;;;;;;;10472274;28;20335;-76
2023/06/24 20:02:13;;;;;;;8.32;4.43;;;;;;;;;;10475001;28;20243;-74
2023/06/24 20:07:16;;;;;;;8.80;4.53;;;;;;;;;;10471846;28;20045;-75
2023/06/24 20:12:21;;;;;;;12.93;6.50;;;;;;;;;;10465460;28;20087;-75
2023/06/24 20:17:24;;;;;;;12.68;5.75;;;;;;;;;;10476779;28;20056;-75
2023/06/24 20:22:27;;;;;;;9.63;4.75;;;;;;;;;;10468681;28;20045;-76
2023/06/24 20:27:32;;;;;;;9.80;4.88;;;;;;;;;;10477277;28;20045;-76
2023/06/24 20:32:35;;;;;;;10.82;5.32;;;;;;;;;;10475395;28;20135;-75
2023/06/24 20:37:38;;;;;;;13.20;5.55;;;;;;;;;;10479429;28;20059;-75
2023/06/24 20:42:42;;;;;;;10.23;5.07;;;;;;;;;;10472830;28;20081;-74
2023/06/24 20:47:44;;;;;;;7.45;3.90;;;;;;;;;;10470485;28;20045;-75
2023/06/24 20:52:48;;;;;;;8.77;2.80;;;;;;;;;;10473216;28;20041;-76
2023/06/24 20:57:52;;;;;;;10.57;4.28;;;;;;;;;;10478088;28;20056;-76
2023/06/24 21:02:55;;;;;;;6.55;4.07;;;;;;;;;;10466513;28;20029;-74
2023/06/24 21:07:58;;;;;;;7.50;3.80;;;;;;;;;;10471455;28;20055;-75
2023/06/24 21:13:01;;;;;;;;;;;;;;;;;;10474176;28;20096;-75
2023/06/24 21:18:05;;;;;;;7.95;4.30;;;;;;;;;;10472363;28;19921;-75
2023/06/24 21:23:08;;;;;;;10.00;4.25;;;;;;;;;;10456936;28;20064;-75
2023/06/24 21:28:11;;;;;;;7.53;3.85;;;;;;;;;;10469232;28;20127;-74
2023/06/24 21:33:16;;;;;;;8.10;3.63;;;;;;;;;;10471832;28;20048;-75
2023/06/24 21:38:19;;;;;;;6.40;3.65;;;;;;;;;;10468349;28;20048;-74
2023/06/24 21:43:22;;;;;;;7.85;3.72;;;;;;;;;;10466550;28;20033;-76
2023/06/24 21:48:25;;;;;;;;;;;;;;;;;;10473095;28;20119;-76
2023/06/24 21:53:31;;;;;;;8.35;3.88;;;;;;;;;;10469945;28;19932;-76
2023/06/24 21:58:35;;;;;;;11.52;4.07;;;;;;;;;;10476533;28;20079;-76
2023/06/24 22:03:37;;;;;;;;;;;;;;;;;;10466393;28;20092;-75
2023/06/24 22:08:41;;;;;;;7.50;3.67;;;;;;;;;;10467327;28;19921;-74
2023/06/24 22:13:44;;;;;;;9.13;4.68;;;;;;;;;;10466338;28;20166;-74
2023/06/24 22:18:47;;;;;;;8.40;4.03;;;;;;;;;;10464744;28;20466;-76
2023/06/24 22:23:51;;;;;;;6.63;3.70;;;;;;;;;;10474308;28;20262;-74
2023/06/24 22:28:54;;;;;;;9.45;4.13;;;;;;;;;;10469297;28;20041;-75
2023/06/24 22:33:57;;;;;;;7.18;3.92;;;;;;;;;;10472513;28;20040;-76
2023/06/24 22:39:01;;;;;;;7.15;3.83;;;;;;;;;;10473403;28;20059;-74
2023/06/24 22:44:04;;;;;;;7.72;4.03;;;;;;;;;;10478589;28;20044;-75
2023/06/24 22:49:09;;;;;;;9.15;4.35;;;;;;;;;;10479849;28;20060;-75
2023/06/24 22:54:13;;;;;;;8.55;3.97;;;;;;;;;;10476570;28;20037;-74
2023/06/24 22:59:16;;;;;;;7.65;3.88;;;;;;;;;;10485030;28;20057;-75
2023/06/24 23:04:19;;;;;;;9.75;4.75;;;;;;;;;;10477372;28;20060;-75
2023/06/24 23:09:24;;;;;;;7.13;3.97;;;;;;;;;;10474478;28;20040;-75
2023/06/24 23:14:27;;;;;;;10.20;4.43;;;;;;;;;;10467033;28;20083;-74
2023/06/24 23:19:30;;;;;;;7.43;3.83;;;;;;;;;;10476389;28;20045;-75
2023/06/24 23:24:35;;;;;;;6.85;3.85;;;;;;;;;;10478678;28;20186;-75
2023/06/24 23:29:41;;;;;;;7.03;3.70;;;;;;;;;;10476403;28;20055;-75
2023/06/24 23:34:44;;;;;;;11.60;4.65;;;;;;;;;;10476419;28;20041;-74
2023/06/24 23:39:49;;;;;;;8.63;4.03;;;;;;;;;;10472216;28;20045;-74
2023/06/24 23:44:52;;;;;;;11.32;4.72;;;;;;;;;;10470348;28;20040;-74
2023/06/24 23:49:55;;;;;;;12.10;4.68;;;;;;;;;;10482035;28;20044;-75
2023/06/24 23:54:59;;;;;;;10.30;4.47;;;;;;;;;;10470828;28;20048;-74
